Time;durP1;ratioP1;P1;durP2;ratioP2;P2;SDS_P1;SDS_P2;PMS_P1;PMS_P2;Temp;Humidity;BMP_temperature;BMP_pressure;BME280_temperature;BME280_humidity;BME280_pressure;Samples;Min_cycle;Max_cycle;Signal;HPM_P1;HPM_P2
2022/09/21 00:01:28;;;;;;;11.18;2.35;;;19.60;99.90;;;;;;5025406;28;20393;-84
2022/09/21 00:04:01;;;;;;;9.48;2.42;;;19.80;99.90;;;;;;5030593;28;20466;-82
2022/09/21 00:06:30;;;;;;;8.27;2.42;;;19.80;99.90;;;;;;5027970;28;20791;-81
2022/09/21 00:08:57;;;;;;;10.43;2.47;;;19.80;99.90;;;;;;5028679;28;20448;-84
2022/09/21 00:11:29;;;;;;;8.37;2.30;;;19.80;99.90;;;;;;5044510;28;20385;-86
2022/09/21 00:13:59;;;;;;;7.72;2.15;;;20.00;99.90;;;;;;5009477;28;20444;-82
2022/09/21 00:16:35;;;;;;;9.80;2.30;;;20.30;99.90;;;;;;5034597;28;20468;-81
2022/09/21 00:19:02;;;;;;;9.88;2.17;;;20.70;99.90;;;;;;5036643;28;20457;-82
2022/09/21 00:21:30;;;;;;;7.35;2.22;;;20.70;99.90;;;;;;5036850;28;20377;-85
2022/09/21 00:23:58;;;;;;;10.60;2.30;;;21.00;99.90;;;;;;5024433;28;20409;-83
2022/09/21 00:26:26;;;;;;;9.13;2.30;;;21.00;99.90;;;;;;5032018;28;20385;-82
2022/09/21 00:28:56;;;;;;;7.60;1.93;;;21.00;99.90;;;;;;5017947;28;20399;-81
2022/09/21 00:31:24;;;;;;;7.20;1.98;;;21.20;99.90;;;;;;5020165;28;20403;-83
2022/09/21 00:33:51;;;;;;;9.07;2.15;;;21.20;99.90;;;;;;5028893;28;20892;-82
2022/09/21 00:36:21;;;;;;;6.90;2.00;;;21.40;99.90;;;;;;5015312;28;20387;-82
2022/09/21 00:38:54;;;;;;;6.97;1.90;;;21.70;99.90;;;;;;5025174;28;20422;-80
2022/09/21 00:41:22;;;;;;;6.60;1.75;;;21.90;99.90;;;;;;5026171;28;20393;-83
2022/09/21 00:44:17;;;;;;;6.78;1.95;;;22.00;99.40;;;;;;5023071;28;20409;-85
2022/09/21 00:46:47;;;;;;;7.60;2.10;;;21.70;98.90;;;;;;5015191;28;20422;-83
2022/09/21 00:49:15;;;;;;;5.68;1.90;;;21.70;99.90;;;;;;5013330;28;20379;-84
2022/09/21 00:51:43;;;;;;;8.95;2.20;;;21.90;99.10;;;;;;5024346;28;20451;-91
2022/09/21 00:54:20;;;;;;;6.20;1.90;;;21.70;98.70;;;;;;5009341;28;20752;-84
2022/09/21 00:56:48;;;;;;;6.68;2.03;;;21.70;99.20;;;;;;5030379;28;20953;-84
2022/09/21 00:59:17;;;;;;;9.85;2.20;;;21.80;98.90;;;;;;5030616;28;20373;-88
2022/09/21 01:01:44;;;;;;;8.50;1.90;;;21.60;98.90;;;;;;5030566;28;20424;-87
2022/09/21 01:04:12;;;;;;;7.30;1.98;;;21.50;99.20;;;;;;5030006;28;20401;-82
2022/09/21 01:06:40;;;;;;;10.20;2.20;;;21.60;99.30;;;;;;5030524;28;20386;-84
2022/09/21 01:09:08;;;;;;;7.60;2.10;;;21.70;98.80;;;;;;5012565;28;20745;-86
2022/09/21 01:12:10;;;;;;;5.35;1.70;;;21.70;98.50;;;;;;5030457;28;20441;-84
2022/09/21 01:14:55;;;;;;;7.25;1.90;;;21.70;98.70;;;;;;5030469;28;20423;-87
2022/09/21 01:17:47;;;;;;;5.80;1.80;;;21.80;98.40;;;;;;5030512;28;20374;-85
2022/09/21 01:20:35;;;;;;;7.07;2.00;;;21.70;98.20;;;;;;5018957;28;20369;-87
2022/09/21 01:23:34;;;;;;;8.07;1.90;;;21.40;99.20;;;;;;5030465;28;20382;-86
2022/09/21 01:26:13;;;;;;;6.35;2.00;;;21.50;99.50;;;;;;5034436;28;20714;-84
2022/09/21 01:29:00;;;;;;;8.63;2.13;;;21.70;98.80;;;;;;5022298;28;20468;-87
2022/09/21 01:31:52;;;;;;;7.35;2.00;;;21.60;98.30;;;;;;5034079;28;20393;-84
2022/09/21 01:34:36;;;;;;;10.13;2.15;;;21.30;98.90;;;;;;4974104;28;20393;-84
2022/09/21 01:37:08;;;;;;;10.40;2.00;;;21.30;99.30;;;;;;4974009;28;20390;-86
2022/09/21 01:39:39;;;;;;;6.85;1.90;;;21.20;99.60;;;;;;4973707;28;20421;-84
2022/09/21 01:42:07;;;;;;;6.13;2.07;;;21.00;99.80;;;;;;4973501;28;20405;-86
2022/09/21 01:44:38;;;;;;;8.27;2.08;;;20.80;99.90;;;;;;4973208;28;20418;-84
2022/09/21 01:47:11;;;;;;;7.10;2.00;;;20.80;99.90;;;;;;4992495;28;20864;-86
2022/09/21 01:49:52;;;;;;;7.47;2.10;;;20.60;99.90;;;;;;4981552;28;20379;-83
2022/09/21 01:52:55;;;;;;;8.02;2.10;;;20.50;99.90;;;;;;4968691;28;20371;-83
2022/09/21 01:55:34;;;;;;;7.20;2.00;;;20.40;99.90;;;;;;4989514;28;20394;-84
2022/09/21 01:58:19;;;;;;;9.00;2.20;;;20.30;99.90;;;;;;4976735;28;20811;-83
2022/09/21 02:00:48;;;;;;;9.50;2.10;;;20.40;99.90;;;;;;4973058;28;20410;-83
2022/09/21 02:03:33;;;;;;;7.28;2.05;;;20.50;99.90;;;;;;4973648;28;20387;-84
2022/09/21 02:06:01;;;;;;;7.57;2.00;;;20.40;99.90;;;;;;4956373;28;20906;-83
2022/09/21 02:08:31;;;;;;;8.02;2.10;;;20.50;99.90;;;;;;4973037;28;20387;-86
2022/09/21 02:11:03;;;;;;;6.93;2.10;;;20.40;99.90;;;;;;4987816;28;20731;-84
2022/09/21 02:13:37;;;;;;;9.07;2.15;;;20.40;99.90;;;;;;5034114;28;20390;-84
2022/09/21 02:16:07;;;;;;;7.22;2.08;;;20.30;99.90;;;;;;5033472;28;20373;-85
2022/09/21 02:19:06;;;;;;;7.63;1.92;;;20.30;99.90;;;;;;5033674;28;20464;-84
2022/09/21 02:21:57;;;;;;;8.00;2.15;;;20.30;99.90;;;;;;5033412;28;20790;-85
2022/09/21 02:24:37;;;;;;;7.40;2.30;;;20.20;99.90;;;;;;5047144;28;20414;-83
2022/09/21 02:27:06;;;;;;;6.95;2.30;;;20.00;99.90;;;;;;5033539;28;20979;-84
2022/09/21 02:30:00;;;;;;;6.70;2.17;;;20.10;99.90;;;;;;5033601;28;20388;-85
2022/09/21 02:32:50;;;;;;;9.13;2.28;;;20.20;99.90;;;;;;5032889;28;20479;-84
2022/09/21 02:35:35;;;;;;;8.23;2.10;;;20.20;99.90;;;;;;4971669;28;20386;-84
2022/09/21 02:38:38;;;;;;;7.88;2.10;;;20.30;99.90;;;;;;4971903;28;20389;-86
2022/09/21 02:41:24;;;;;;;8.63;2.10;;;20.20;99.90;;;;;;4971831;28;20393;-84
2022/09/21 02:43:59;;;;;;;8.52;2.20;;;20.30;99.90;;;;;;4972105;28;20959;-84
2022/09/21 02:46:57;;;;;;;8.80;2.37;;;20.30;99.90;;;;;;4971850;28;20465;-84
2022/09/21 02:49:38;;;;;;;8.05;2.00;;;20.20;99.90;;;;;;4914421;29;20474;-83
2022/09/21 02:52:14;;;;;;;10.48;2.20;;;20.20;99.90;;;;;;4914337;29;20895;-83
2022/09/21 02:54:48;;;;;;;6.47;2.17;;;20.30;99.90;;;;;;4914629;29;21035;-84
2022/09/21 02:57:18;;;;;;;9.02;2.25;;;20.30;99.90;;;;;;4914551;29;20408;-86
2022/09/21 02:59:45;;;;;;;6.63;2.10;;;20.20;99.90;;;;;;4919646;29;20391;-85
2022/09/21 03:02:12;;;;;;;6.95;2.10;;;20.10;99.90;;;;;;4919324;29;20396;-84
2022/09/21 03:04:42;;;;;;;8.77;2.53;;;20.00;99.90;;;;;;4898592;29;20828;-84
2022/09/21 03:07:09;;;;;;;8.70;2.20;;;20.00;99.90;;;;;;4914437;29;20391;-83
2022/09/21 03:09:36;;;;;;;8.27;2.13;;;20.00;99.90;;;;;;4914863;29;20408;-84
2022/09/21 03:12:04;;;;;;;7.18;2.20;;;20.00;99.90;;;;;;4937666;28;20438;-85
2022/09/21 03:14:32;;;;;;;6.93;2.00;;;20.10;99.90;;;;;;4971399;28;20398;-83
2022/09/21 03:16:59;;;;;;;8.73;2.33;;;20.20;99.90;;;;;;4971461;28;20382;-82
2022/09/21 03:19:28;;;;;;;7.25;2.20;;;20.10;99.90;;;;;;4971262;28;20493;-83
2022/09/21 03:21:55;;;;;;;9.10;2.42;;;20.20;99.90;;;;;;4971396;28;20367;-85
2022/09/21 03:27:08;;;;;;;8.05;2.47;;;20.10;99.90;;;;;;5032451;28;20790;-84
2022/09/21 03:29:35;;;;;;;8.73;2.20;;;20.10;99.90;;;;;;5032800;28;20820;-85
2022/09/21 03:32:02;;;;;;;7.68;2.50;;;20.10;99.90;;;;;;5032232;28;20437;-85
2022/09/21 03:34:33;;;;;;;9.55;2.20;;;20.00;99.90;;;;;;5032034;28;20377;-85
2022/09/21 03:37:01;;;;;;;9.00;2.45;;;19.80;99.90;;;;;;5018176;28;20386;-85
2022/09/21 03:39:28;;;;;;;9.45;2.40;;;19.60;99.90;;;;;;5032039;28;20897;-87
2022/09/21 03:41:55;;;;;;;8.10;2.33;;;19.50;99.90;;;;;;5031774;28;20394;-87
2022/09/21 03:44:23;;;;;;;9.07;2.45;;;19.50;99.90;;;;;;5031748;28;20443;-85
2022/09/21 03:46:50;;;;;;;6.85;2.30;;;19.50;99.90;;;;;;5030967;28;20450;-85
2022/09/21 03:49:18;;;;;;;8.57;2.30;;;19.50;99.90;;;;;;5022402;28;20406;-87
2022/09/21 03:51:45;;;;;;;6.90;2.50;;;19.50;99.90;;;;;;5011117;28;20451;-84
2022/09/21 03:54:13;;;;;;;8.45;2.47;;;19.50;99.90;;;;;;5044134;28;20726;-87
2022/09/21 03:56:40;;;;;;;9.05;2.25;;;19.50;99.90;;;;;;5031906;28;21008;-87
2022/09/21 03:59:07;;;;;;;8.43;2.28;;;19.40;99.90;;;;;;5031469;28;20792;-84
2022/09/21 04:01:35;;;;;;;7.72;2.47;;;19.50;99.90;;;;;;5031526;28;20480;-85
2022/09/21 04:04:02;;;;;;;7.97;2.50;;;19.50;99.90;;;;;;5031227;28;20415;-83
2022/09/21 04:06:29;;;;;;;6.88;2.45;;;19.50;99.90;;;;;;5031611;28;20469;-83
2022/09/21 04:08:56;;;;;;;6.90;2.40;;;19.50;99.90;;;;;;5031568;28;20382;-87
2022/09/21 04:11:23;;;;;;;8.98;2.42;;;19.50;99.90;;;;;;5031005;28;20435;-84
2022/09/21 04:13:55;;;;;;;7.15;2.30;;;19.40;99.90;;;;;;5031296;28;20431;-84
2022/09/21 04:16:24;;;;;;;6.60;2.38;;;19.30;99.90;;;;;;5031240;28;20429;-85
2022/09/21 04:18:51;;;;;;;8.45;2.40;;;19.30;99.90;;;;;;5036749;28;20385;-87
2022/09/21 04:21:21;;;;;;;10.25;2.80;;;19.20;99.90;;;;;;5036906;28;20393;-87
2022/09/21 04:23:48;;;;;;;11.18;2.65;;;19.30;99.90;;;;;;5017631;28;20439;-84
2022/09/21 04:26:28;;;;;;;8.97;2.47;;;19.30;99.90;;;;;;5035410;28;20397;-87
2022/09/21 04:28:56;;;;;;;14.13;3.47;;;19.30;99.90;;;;;;5034029;28;20381;-87
2022/09/21 04:31:26;;;;;;;12.47;4.00;;;19.30;99.90;;;;;;5035160;28;20458;-85
2022/09/21 04:33:55;;;;;;;10.65;2.90;;;19.30;99.90;;;;;;5036723;28;20389;-87
2022/09/21 04:36:24;;;;;;;8.77;2.57;;;19.30;99.90;;;;;;5037814;28;20446;-86
2022/09/21 04:38:51;;;;;;;6.95;2.53;;;19.30;99.90;;;;;;5039211;28;20451;-86
2022/09/21 04:41:18;;;;;;;10.00;2.70;;;19.20;99.90;;;;;;5022807;28;20375;-85
2022/09/21 04:43:47;;;;;;;9.83;3.00;;;19.20;99.90;;;;;;5021736;28;20432;-88
2022/09/21 04:46:17;;;;;;;8.87;2.47;;;19.10;99.90;;;;;;5049606;28;20407;-87
2022/09/21 04:48:44;;;;;;;10.85;3.00;;;19.10;99.90;;;;;;5037415;28;20497;-84
2022/09/21 04:51:14;;;;;;;9.73;2.67;;;19.00;99.90;;;;;;5038571;28;20384;-88
2022/09/21 04:53:43;;;;;;;10.93;2.78;;;18.90;99.90;;;;;;5035164;28;20508;-87
2022/09/21 04:56:17;;;;;;;10.98;2.72;;;18.90;99.90;;;;;;5037069;28;20381;-85
2022/09/21 04:58:47;;;;;;;9.38;2.40;;;18.90;99.90;;;;;;5015533;28;20398;-86
2022/09/21 05:01:14;;;;;;;8.65;2.50;;;18.90;99.90;;;;;;5020040;28;20917;-87
2022/09/21 05:03:41;;;;;;;7.80;2.30;;;19.00;99.90;;;;;;5017514;28;20392;-85
2022/09/21 05:06:12;;;;;;;7.35;2.30;;;19.00;99.90;;;;;;5034760;28;20390;-87
2022/09/21 05:11:27;;;;;;;8.55;2.30;;;18.80;99.90;;;;;;5052068;28;20817;-88
2022/09/21 05:13:55;;;;;;;8.27;2.20;;;18.90;99.90;;;;;;5047821;28;20375;-88
2022/09/21 05:16:22;;;;;;;6.85;2.25;;;18.80;99.90;;;;;;5041556;28;20381;-86
2022/09/21 05:18:52;;;;;;;12.07;2.20;;;18.80;99.90;;;;;;5028518;28;20406;-85
2022/09/21 05:21:20;;;;;;;10.15;2.15;;;18.70;99.90;;;;;;5021462;28;20381;-87
2022/09/21 05:23:47;;;;;;;8.25;2.40;;;18.70;99.90;;;;;;5040447;28;20376;-83
2022/09/21 05:26:14;;;;;;;8.43;2.25;;;18.70;99.90;;;;;;5030212;28;20749;-85
2022/09/21 05:28:41;;;;;;;9.63;2.40;;;18.70;99.90;;;;;;5049002;28;20381;-84
2022/09/21 05:31:26;;;;;;;9.68;2.40;;;18.80;99.90;;;;;;5035879;28;20459;-87
2022/09/21 05:34:12;;;;;;;6.38;2.50;;;18.70;99.90;;;;;;5036540;28;20393;-89
2022/09/21 05:37:02;;;;;;;12.00;2.77;;;18.70;99.90;;;;;;5039112;28;20382;-88
2022/09/21 05:39:30;;;;;;;7.93;2.45;;;18.70;99.90;;;;;;5024554;28;20379;-85
2022/09/21 05:41:57;;;;;;;9.35;2.40;;;18.80;99.90;;;;;;5036243;28;20381;-88
2022/09/21 05:44:35;;;;;;;7.45;2.35;;;18.70;99.90;;;;;;5036273;28;20409;-89
2022/09/21 05:47:26;;;;;;;9.80;2.53;;;18.70;99.90;;;;;;5016895;28;20389;-87
2022/09/21 05:50:27;;;;;;;11.05;2.67;;;18.70;99.90;;;;;;5016735;28;20397;-89
2022/09/21 05:53:07;;;;;;;9.70;2.57;;;18.70;99.90;;;;;;5035296;28;20875;-88
2022/09/21 05:55:57;;;;;;;9.13;2.20;;;18.60;99.90;;;;;;5033584;28;20380;-85
2022/09/21 05:58:48;;;;;;;7.25;2.25;;;18.50;99.90;;;;;;5012669;28;20528;-86
2022/09/21 06:01:30;;;;;;;9.23;2.42;;;18.50;99.90;;;;;;5030137;28;20799;-85
2022/09/21 06:03:58;;;;;;;8.63;2.57;;;18.50;99.90;;;;;;5030209;28;20392;-84
2022/09/21 06:06:25;;;;;;;10.25;2.58;;;18.40;99.90;;;;;;5031049;28;20392;-88
2022/09/21 06:08:52;;;;;;;11.48;2.40;;;18.30;99.90;;;;;;5012929;28;20390;-85
2022/09/21 06:11:20;;;;;;;9.88;2.80;;;18.30;99.90;;;;;;5036547;28;20380;-82
2022/09/21 06:13:47;;;;;;;12.43;3.22;;;18.30;99.90;;;;;;5037798;28;20447;-87
2022/09/21 06:16:14;;;;;;;10.85;2.70;;;18.30;99.90;;;;;;5038149;28;20381;-89
2022/09/21 06:18:41;;;;;;;9.93;2.60;;;18.30;99.90;;;;;;5035475;28;20384;-89
2022/09/21 06:21:09;;;;;;;8.07;2.22;;;18.40;99.90;;;;;;5034215;28;20381;-87
2022/09/21 06:23:36;;;;;;;6.47;2.60;;;18.30;99.90;;;;;;5033438;28;20725;-86
2022/09/21 06:26:03;;;;;;;11.35;3.60;;;18.10;99.90;;;;;;5033656;28;20385;-86
2022/09/21 06:28:30;;;;;;;21.38;9.90;;;18.00;99.90;;;;;;5020174;28;20732;-86
2022/09/21 06:30:57;;;;;;;18.13;8.82;;;18.00;99.90;;;;;;5033613;28;20405;-85
2022/09/21 06:33:25;;;;;;;14.32;4.50;;;17.90;99.90;;;;;;5028239;28;20384;-88
2022/09/21 06:35:59;;;;;;;11.32;3.50;;;17.80;99.90;;;;;;5033818;28;20380;-85
2022/09/21 06:38:29;;;;;;;11.75;3.38;;;17.80;99.90;;;;;;5033540;28;20784;-84
2022/09/21 06:41:01;;;;;;;11.03;3.20;;;17.80;99.90;;;;;;5033358;28;20380;-85
2022/09/21 06:43:29;;;;;;;12.00;3.38;;;17.70;99.90;;;;;;5033488;28;20413;-83
2022/09/21 06:46:01;;;;;;;11.90;3.17;;;17.70;99.90;;;;;;5033342;28;20405;-86
2022/09/21 06:48:29;;;;;;;10.88;3.60;;;17.60;99.90;;;;;;5047064;28;20371;-84
2022/09/21 06:51:01;;;;;;;12.90;3.40;;;17.50;99.90;;;;;;5033170;28;20389;-83
2022/09/21 06:53:31;;;;;;;9.82;3.10;;;17.40;99.90;;;;;;5032687;28;20377;-83
2022/09/21 06:56:02;;;;;;;8.60;2.70;;;17.30;99.90;;;;;;5033048;28;20385;-85
2022/09/21 06:58:33;;;;;;;10.13;2.63;;;17.30;99.90;;;;;;5033196;28;20437;-87
2022/09/21 07:01:08;;;;;;;8.00;2.55;;;17.30;99.90;;;;;;5032780;28;20401;-86
2022/09/21 07:03:36;;;;;;;7.22;2.58;;;17.30;99.90;;;;;;5032958;28;20385;-82
2022/09/21 07:06:03;;;;;;;9.55;2.72;;;17.30;99.90;;;;;;5032726;28;20885;-82
2022/09/21 07:08:31;;;;;;;8.43;2.83;;;17.30;99.90;;;;;;5033105;28;20456;-83
2022/09/21 07:10:59;;;;;;;8.20;2.67;;;17.20;99.90;;;;;;5032556;28;20439;-82
2022/09/21 07:13:29;;;;;;;8.32;2.95;;;17.20;99.90;;;;;;5032806;28;20373;-84
2022/09/21 07:15:56;;;;;;;8.07;3.05;;;17.10;99.90;;;;;;5032497;28;20387;-81
2022/09/21 07:18:24;;;;;;;8.75;3.40;;;17.00;99.90;;;;;;5032688;28;20381;-83
2022/09/21 07:20:51;;;;;;;10.75;3.10;;;17.00;99.90;;;;;;5032520;28;20488;-83
2022/09/21 07:23:21;;;;;;;10.77;3.50;;;17.00;99.90;;;;;;5032285;28;20409;-85
2022/09/21 07:25:52;;;;;;;11.23;3.50;;;16.90;99.90;;;;;;5032355;28;20409;-86
2022/09/21 07:28:19;;;;;;;9.65;3.40;;;16.90;99.90;;;;;;5032252;28;20369;-83
2022/09/21 07:30:46;;;;;;;11.55;3.30;;;16.90;99.90;;;;;;5032017;28;20481;-82
2022/09/21 07:33:13;;;;;;;8.25;3.42;;;16.80;99.90;;;;;;5032450;28;20522;-83
2022/09/21 07:35:49;;;;;;;9.32;3.55;;;16.70;99.90;;;;;;5023508;28;20375;-86
2022/09/21 07:38:16;;;;;;;12.43;3.70;;;16.70;99.90;;;;;;5029320;28;20451;-82
2022/09/21 07:40:43;;;;;;;10.13;3.60;;;16.70;99.90;;;;;;5041484;28;20360;-83
2022/09/21 07:43:10;;;;;;;11.80;3.80;;;16.70;99.90;;;;;;5037436;28;20381;-83
2022/09/21 07:45:37;;;;;;;10.38;4.22;;;16.60;99.90;;;;;;5032386;28;20401;-83
2022/09/21 07:48:05;;;;;;;9.45;3.35;;;16.60;99.90;;;;;;5032906;28;20455;-91
2022/09/21 07:50:33;;;;;;;8.70;3.67;;;16.40;99.90;;;;;;5032883;28;20377;-83
2022/09/21 07:53:03;;;;;;;10.00;3.97;;;16.40;99.90;;;;;;5032668;28;20374;-82
2022/09/21 07:55:30;;;;;;;11.18;4.03;;;16.40;99.90;;;;;;5032274;28;20467;-83
2022/09/21 08:00:43;;;;;;;13.03;4.17;;;16.40;99.90;;;;;;5046680;28;20379;-82
2022/09/21 08:03:11;;;;;;;15.18;4.32;;;16.40;99.90;;;;;;5037399;28;20528;-82
2022/09/21 08:05:38;;;;;;;14.15;4.60;;;16.40;99.90;;;;;;5040323;28;20413;-84
2022/09/21 08:08:07;;;;;;;9.52;4.70;;;16.40;99.90;;;;;;5015142;28;20389;-82
2022/09/21 08:10:36;;;;;;;12.68;4.85;;;16.50;99.90;;;;;;5033608;28;20383;-80
2022/09/21 08:13:03;;;;;;;11.23;4.93;;;16.50;99.90;;;;;;5027234;28;20376;-85
2022/09/21 08:15:30;;;;;;;10.82;4.90;;;16.40;99.90;;;;;;5039293;28;20873;-81
2022/09/21 08:17:57;;;;;;;12.63;5.25;;;16.40;99.90;;;;;;5022104;28;20385;-79
2022/09/21 08:20:25;;;;;;;13.13;6.78;;;16.40;99.90;;;;;;5035455;28;20391;-79
2022/09/21 08:22:55;;;;;;;13.03;6.70;;;16.30;99.90;;;;;;5030569;28;20874;-82
2022/09/21 08:25:27;;;;;;;17.92;8.35;;;16.30;99.90;;;;;;5039631;28;20431;-80
2022/09/21 08:27:59;;;;;;;11.50;6.10;;;16.30;99.90;;;;;;5022948;28;20396;-80
2022/09/21 08:30:27;;;;;;;13.25;6.30;;;16.30;99.90;;;;;;5043772;28;20365;-81
2022/09/21 08:32:55;;;;;;;11.82;5.28;;;16.20;99.90;;;;;;5041185;28;20485;-80
2022/09/21 08:35:22;;;;;;;12.65;4.80;;;16.20;99.90;;;;;;5024651;28;20403;-78
2022/09/21 08:37:52;;;;;;;10.60;4.30;;;16.20;99.90;;;;;;5039702;28;20367;-83
2022/09/21 08:40:20;;;;;;;8.90;4.30;;;16.10;99.90;;;;;;5032676;28;20408;-84
2022/09/21 08:43:05;;;;;;;9.43;4.10;;;16.10;99.90;;;;;;5029386;28;20789;-84
2022/09/21 08:45:44;;;;;;;10.75;4.72;;;16.00;99.90;;;;;;5029395;28;20413;-79
2022/09/21 08:48:24;;;;;;;10.13;4.40;;;16.00;99.90;;;;;;5015292;28;20731;-85
2022/09/21 08:51:01;;;;;;;8.88;4.85;;;16.00;99.90;;;;;;5031839;28;20428;-81
2022/09/21 08:53:44;;;;;;;14.30;4.90;;;16.00;99.90;;;;;;5020736;28;20386;-82
2022/09/21 08:56:14;;;;;;;13.15;5.20;;;16.00;99.90;;;;;;5029683;28;20408;-83
2022/09/21 08:58:42;;;;;;;13.30;4.95;;;15.90;99.90;;;;;;5008307;28;20385;-86
2022/09/21 09:01:40;;;;;;;10.13;4.63;;;15.90;99.90;;;;;;5034432;28;20417;-84
2022/09/21 09:04:39;;;;;;;12.48;4.65;;;15.90;99.90;;;;;;5036918;28;20401;-81
2022/09/21 09:07:16;;;;;;;11.85;4.93;;;15.90;99.90;;;;;;5027470;28;20396;-80
2022/09/21 09:09:57;;;;;;;15.60;5.28;;;15.80;99.90;;;;;;5031711;28;20375;-82
2022/09/21 09:12:48;;;;;;;12.85;5.72;;;15.80;99.90;;;;;;5031220;28;20460;-80
2022/09/21 09:15:31;;;;;;;14.10;5.97;;;15.80;99.90;;;;;;5020969;28;20370;-80
2022/09/21 09:18:20;;;;;;;13.93;5.70;;;15.70;99.90;;;;;;5030732;28;20925;-85
2022/09/21 09:20:57;;;;;;;12.63;5.60;;;15.70;99.90;;;;;;5023901;28;20453;-82
2022/09/21 09:23:27;;;;;;;9.80;5.20;;;15.70;99.90;;;;;;5020743;28;20473;-77
2022/09/21 09:26:00;;;;;;;11.55;5.13;;;15.70;99.90;;;;;;5021196;28;20417;-79
2022/09/21 09:28:36;;;;;;;14.80;5.30;;;15.70;99.90;;;;;;5032342;28;20381;-82
2022/09/21 09:31:11;;;;;;;12.38;5.38;;;15.60;99.90;;;;;;5031172;28;20401;-83
2022/09/21 09:34:13;;;;;;;11.70;5.28;;;15.60;99.90;;;;;;5013813;28;20879;-78
2022/09/21 09:37:05;;;;;;;11.13;5.20;;;15.60;99.90;;;;;;5018154;28;20471;-77
2022/09/21 09:39:32;;;;;;;13.05;6.70;;;15.60;99.90;;;;;;5006887;28;20414;-84
2022/09/21 09:42:20;;;;;;;15.90;8.20;;;15.50;99.90;;;;;;5030272;28;20413;-81
2022/09/21 09:45:02;;;;;;;14.93;7.20;;;15.50;99.90;;;;;;5031668;28;20407;-81
2022/09/21 09:47:43;;;;;;;12.80;6.90;;;15.50;99.90;;;;;;5004785;28;20391;-81
2022/09/21 09:50:27;;;;;;;11.52;6.72;;;15.50;99.90;;;;;;5032202;28;20462;-87
2022/09/21 09:52:59;;;;;;;15.40;7.30;;;15.50;99.90;;;;;;5034513;28;20424;-81
2022/09/21 09:55:33;;;;;;;12.85;6.60;;;15.50;99.90;;;;;;5031118;28;20454;-82
2022/09/21 09:58:01;;;;;;;11.77;7.00;;;15.40;99.90;;;;;;5028752;28;20396;-81
2022/09/21 10:00:28;;;;;;;11.98;6.35;;;15.40;99.90;;;;;;5035275;28;20373;-83
2022/09/21 10:02:58;;;;;;;10.48;5.45;;;15.50;99.90;;;;;;5033929;28;20381;-82
2022/09/21 10:05:32;;;;;;;13.23;5.50;;;15.40;99.90;;;;;;5033027;28;20496;-86
2022/09/21 10:07:59;;;;;;;12.02;4.88;;;15.40;99.90;;;;;;5034267;28;20378;-82
2022/09/21 10:10:32;;;;;;;13.30;5.85;;;15.50;99.90;;;;;;5030645;28;20471;-84
2022/09/21 10:13:27;;;;;;;13.38;6.10;;;15.50;99.90;;;;;;5020906;28;20892;-86
2022/09/21 10:16:11;;;;;;;11.10;6.63;;;15.50;99.90;;;;;;5033463;28;20488;-82
2022/09/21 10:18:46;;;;;;;13.30;6.15;;;15.50;99.90;;;;;;5034206;28;20385;-80
2022/09/21 10:21:18;;;;;;;15.25;6.82;;;15.50;99.90;;;;;;5047982;28;20446;-80
2022/09/21 10:23:52;;;;;;;14.17;7.07;;;15.60;99.90;;;;;;5030372;28;20952;-83
2022/09/21 10:26:20;;;;;;;15.63;7.10;;;15.60;99.90;;;;;;5030705;28;20440;-78
2022/09/21 10:29:02;;;;;;;17.63;7.20;;;15.50;99.90;;;;;;5025230;28;20423;-80
2022/09/21 10:31:30;;;;;;;17.77;9.90;;;15.50;99.90;;;;;;5032977;28;20460;-80
2022/09/21 10:34:13;;;;;;;22.90;11.10;;;15.50;99.90;;;;;;5027764;28;20382;-81
2022/09/21 10:36:49;;;;;;;18.02;8.27;;;15.50;99.90;;;;;;5021642;28;20427;-81
2022/09/21 10:39:20;;;;;;;17.27;8.98;;;15.50;99.90;;;;;;5032384;28;20409;-80
2022/09/21 10:42:17;;;;;;;14.23;8.02;;;15.50;99.90;;;;;;5032864;28;20386;-80
2022/09/21 10:44:53;;;;;;;15.13;8.30;;;15.50;99.90;;;;;;5028781;28;20500;-83
2022/09/21 10:48:09;;;;;;;22.90;13.95;;;15.60;99.90;;;;;;5020613;28;20400;-80
2022/09/21 10:50:41;;;;;;;18.57;9.30;;;15.50;99.90;;;;;;4969469;28;20398;-83
2022/09/21 10:53:08;;;;;;;14.65;7.10;;;15.50;99.90;;;;;;4965582;28;20415;-85
2022/09/21 10:56:17;;;;;;;13.82;7.53;;;15.60;99.90;;;;;;4969327;28;20585;-83
2022/09/21 10:59:20;;;;;;;16.58;7.45;;;15.50;99.90;;;;;;4913858;29;20419;-80
2022/09/21 11:01:50;;;;;;;16.15;7.82;;;15.50;99.90;;;;;;4913943;29;20387;-80
2022/09/21 11:04:44;;;;;;;14.93;8.38;;;15.50;99.90;;;;;;4916271;29;20403;-78
2022/09/21 11:07:26;;;;;;;16.42;8.82;;;15.60;99.90;;;;;;4934685;29;20933;-82
2022/09/21 11:10:14;;;;;;;20.08;9.15;;;15.50;99.90;;;;;;4935696;29;20378;-81
2022/09/21 11:13:08;;;;;;;16.02;8.63;;;15.50;99.90;;;;;;4934107;29;20887;-81
2022/09/21 11:15:55;;;;;;;17.20;8.98;;;15.50;99.90;;;;;;4934923;29;20417;-81
2022/09/21 11:18:42;;;;;;;14.30;9.18;;;15.50;99.90;;;;;;4935256;29;20390;-81
2022/09/21 11:21:40;;;;;;;15.35;9.07;;;15.50;99.90;;;;;;4895991;29;20456;-81
2022/09/21 11:24:43;;;;;;;19.00;9.70;;;15.50;99.90;;;;;;4897685;29;20448;-82
2022/09/21 11:27:40;;;;;;;18.43;9.10;;;15.50;99.90;;;;;;4879350;29;20406;-81
2022/09/21 11:30:12;;;;;;;15.10;9.83;;;15.60;99.90;;;;;;4890006;29;20393;-82
2022/09/21 11:32:42;;;;;;;18.90;10.10;;;15.50;99.90;;;;;;4923448;28;20407;-82
2022/09/21 11:35:25;;;;;;;17.17;9.07;;;15.60;99.90;;;;;;4951125;28;20396;-83
2022/09/21 11:37:55;;;;;;;16.77;10.10;;;15.50;99.90;;;;;;4949591;28;20400;-80
2022/09/21 11:40:32;;;;;;;15.32;9.63;;;15.50;99.90;;;;;;4945247;28;20396;-82
2022/09/21 11:43:08;;;;;;;15.95;9.20;;;15.50;99.90;;;;;;4937636;28;20404;-82
2022/09/21 11:46:10;;;;;;;15.45;9.10;;;15.50;99.90;;;;;;4950862;28;20506;-81
2022/09/21 11:48:55;;;;;;;18.98;10.20;;;15.50;99.90;;;;;;4951554;28;20423;-83
2022/09/21 11:51:59;;;;;;;15.98;10.02;;;15.40;99.90;;;;;;4938876;28;20463;-81
2022/09/21 11:54:41;;;;;;;17.35;10.73;;;15.30;99.90;;;;;;4950653;28;20494;-80
2022/09/21 11:57:20;;;;;;;20.58;11.50;;;15.30;99.90;;;;;;4953532;28;20395;-80
2022/09/21 12:00:05;;;;;;;16.63;11.20;;;15.20;99.90;;;;;;5031350;28;20431;-81
2022/09/21 12:03:07;;;;;;;17.70;10.98;;;15.20;99.90;;;;;;5022984;28;20473;-81
2022/09/21 12:06:12;;;;;;;18.07;10.93;;;15.20;99.90;;;;;;4949112;28;20987;-81
2022/09/21 12:09:06;;;;;;;19.37;11.73;;;15.10;99.90;;;;;;4950277;28;20412;-82
2022/09/21 12:11:39;;;;;;;19.43;11.97;;;15.10;99.90;;;;;;4950718;28;20388;-81
2022/09/21 12:14:27;;;;;;;17.20;11.00;;;15.00;99.90;;;;;;4950623;28;20883;-81
2022/09/21 12:17:37;;;;;;;17.60;11.77;;;15.10;99.90;;;;;;4956111;28;20894;-83
2022/09/21 12:20:18;;;;;;;20.55;11.65;;;15.10;99.90;;;;;;4891741;29;20847;-81
2022/09/21 12:22:47;;;;;;;19.85;11.77;;;15.00;99.90;;;;;;4889878;29;20501;-81
2022/09/21 12:25:19;;;;;;;20.52;12.52;;;15.00;99.90;;;;;;4890021;29;20929;-83
2022/09/21 12:28:10;;;;;;;17.15;12.18;;;14.90;99.90;;;;;;4892990;29;20405;-83
2022/09/21 12:30:40;;;;;;;18.80;11.70;;;14.90;99.90;;;;;;4893573;29;20743;-81
2022/09/21 12:33:35;;;;;;;21.47;13.50;;;14.90;99.90;;;;;;4893969;29;20397;-80
2022/09/21 12:36:18;;;;;;;26.98;13.55;;;14.90;99.90;;;;;;4893777;29;20965;-81
2022/09/21 12:39:11;;;;;;;29.23;15.15;;;14.90;99.90;;;;;;4891325;29;21000;-81
2022/09/21 12:41:52;;;;;;;24.65;14.32;;;14.90;99.90;;;;;;4879469;29;20404;-81
2022/09/21 12:44:50;;;;;;;21.30;13.90;;;14.80;99.90;;;;;;4915968;29;20421;-83
2022/09/21 12:47:40;;;;;;;23.50;15.10;;;14.80;99.90;;;;;;4898176;29;20539;-82
2022/09/21 12:50:43;;;;;;;19.77;14.13;;;14.80;99.90;;;;;;4837945;29;20406;-80
2022/09/21 12:53:18;;;;;;;22.40;13.15;;;14.80;99.90;;;;;;4842576;29;20402;-82
2022/09/21 12:56:04;;;;;;;18.83;12.15;;;14.70;99.90;;;;;;4874706;29;20401;-82
2022/09/21 12:59:01;;;;;;;20.17;12.30;;;14.70;99.90;;;;;;4874502;29;20407;-81
2022/09/21 13:01:33;;;;;;;20.40;14.70;;;14.70;99.90;;;;;;4873659;29;21267;-81
2022/09/21 13:04:24;;;;;;;22.38;15.27;;;14.70;99.90;;;;;;4873884;29;20444;-83
2022/09/21 13:07:18;;;;;;;19.75;12.75;;;14.70;99.90;;;;;;4874249;29;20506;-83
2022/09/21 13:09:47;;;;;;;19.75;13.35;;;14.70;99.90;;;;;;4874094;29;20992;-82
2022/09/21 13:12:17;;;;;;;22.17;13.60;;;14.70;99.90;;;;;;4873836;29;20887;-83
2022/09/21 13:14:48;;;;;;;16.73;12.70;;;14.60;99.90;;;;;;4863870;29;21001;-83
2022/09/21 13:17:33;;;;;;;19.95;13.10;;;14.60;99.90;;;;;;4871561;29;20406;-83
2022/09/21 13:20:21;;;;;;;22.13;14.10;;;14.70;99.90;;;;;;4908333;29;20491;-81
2022/09/21 13:22:49;;;;;;;22.73;14.75;;;14.70;99.90;;;;;;4906045;29;20388;-81
2022/09/21 13:25:27;;;;;;;23.40;15.55;;;14.70;99.90;;;;;;4905691;29;20917;-84
2022/09/21 13:28:12;;;;;;;26.55;16.27;;;14.70;99.90;;;;;;5007317;28;20399;-80
2022/09/21 13:30:44;;;;;;;25.73;15.77;;;14.70;99.90;;;;;;5029240;28;20381;-83
2022/09/21 13:33:22;;;;;;;32.20;17.17;;;14.70;99.90;;;;;;5032711;28;20409;-85